Latest Coastal Weather Observations for Mardie

IDW60701

Issued at 12:42 am WST Monday 1 May 2017 (issued every 10 minutes, with the page automatically refreshed every 10 minutes)

About coastal observations | Map of coastal stations | Coastal observations for WA | Marine services | Other Formats
Station Details ID: 005008 Name: MARDIE Lat: -21.19 Lon: 115.98 Height: 11.0 m
Data from the previous 72 hours. | See also: Recent months at Mardie
Date/Time
WST
Temp
°C
Wind Pressure Rain since
9am
mm
Weather Cloud Vis
km
Sea
Height
m
Swell
Dir  Spd
kts
Gust
kts
hPa Trend Height
m
Period
s
Dir
01/12:30am 21.6 ESE 4 6 1015.8 - 0.0 - - - - - - -
01/12:00am 21.8 ESE 4 4 1015.9 - 0.0 - - - - - - -
 
Date/Time
WST
Temp
°C
Wind Pressure Rain since
9am
mm
Weather Cloud Vis
km
Sea
Height
m
Swell
Dir  Spd
kts
Gust
kts
hPa Trend Height
m
Period
s
Dir
30/11:30pm 22.3 S 5 6 1015.8 - 0.0 - - - - - - -
30/11:00pm 22.1 S 2 3 1015.8 - 0.0 - - - - - - -
30/10:30pm 22.7 SW 1 3 1015.7 - 0.0 - - - - - - -
30/10:00pm 23.0 WSW 2 3 1015.6 - 0.0 - - - - - - -
30/09:30pm 23.6 SW 3 3 1015.9 - 0.0 - - - - - - -
30/09:00pm 23.4 CALM 0 2 1015.8 - 0.0 - - - - - - -
30/08:30pm 24.0 CALM 0 0 1015.5 - 0.0 - - - - - - -
30/08:00pm 24.2 CALM 0 0 1015.4 - 0.0 - - - - - - -
30/07:30pm 24.1 NW 3 4 1015.0 - 0.0 - - - - - - -
30/07:00pm 24.6 NW 3 3 1014.8 - 0.0 - - - - - - -
30/06:30pm 25.8 NNW 4 5 1014.6 - 0.0 - - - - - - -
30/06:00pm 26.6 NW 4 5 1014.5 - 0.0 - - - - - - -
30/05:30pm 28.4 NW 6 9 1014.1 - 0.0 - - - - - - -
30/05:00pm 29.7 NW 8 11 1014.0 - 0.0 - - - - - - -
30/04:30pm 30.4 NNW 7 11 1013.9 - 0.0 - - - - - - -
30/04:00pm 31.2 NNW 8 10 1013.8 - 0.0 - - - - - - -
30/03:30pm 31.3 NNW 8 11 1013.8 - 0.0 - - - - - - -
30/03:00pm 31.8 NNW 7 11 1013.9 - 0.0 - - - - - - -
30/02:30pm 31.7 NNW 8 12 1013.8 - 0.0 - - - - - - -
30/02:00pm 32.0 NNW 9 15 1013.8 - 0.0 - - - - - - -
30/01:30pm 32.3 NNW 9 15 1014.0 - 0.0 - - - - - - -
30/01:00pm 32.1 NNW 9 15 1014.4 - 0.0 - - - - - - -
30/12:30pm 32.3 NNW 3 9 1015.0 - 0.0 - - - - - - -
30/12:00pm 32.2 NNE 4 9 1015.5 - 0.0 - - - - - - -
30/11:30am 32.1 ENE 5 10 1015.9 - 0.0 - - - - - - -
30/11:00am 31.6 ENE 6 10 1016.1 - 0.0 - - - - - - -
30/10:30am 31.4 ENE 6 10 1016.3 - 0.0 - - - - - - -
30/10:00am 29.9 ENE 6 10 1016.7 - 0.0 - - - - - - -
30/09:30am 29.0 ESE 4 7 1017.1 - 0.0 - - - - - - -
30/09:00am 27.8 ESE 5 7 1017.1 - 0.0 - - - - - - -
30/08:30am 26.5 ESE 6 7 1017.0 - 0.0 - - - - - - -
30/08:00am 24.7 ESE 6 7 1016.8 - 0.0 - - - - - - -
30/07:30am 23.0 E 5 7 1016.4 - 0.0 - - - - - - -
30/07:00am 21.0 E 5 6 1016.2 - 0.0 - - - - - - -
30/06:30am 20.4 E 4 5 1016.0 - 0.0 - - - - - - -
30/06:00am 20.6 E 4 5 1015.8 - 0.0 - - - - - - -
30/05:30am 20.5 E 4 5 1015.7 - 0.0 - - - - - - -
30/05:00am 20.8 ESE 5 5 1015.6 - 0.0 - - - - - - -
30/04:30am 20.9 ESE 4 5 1015.6 - 0.0 - - - - - - -
30/04:00am 20.7 ESE 4 5 1015.5 - 0.0 - - - - - - -
30/03:30am 20.7 E 4 4 1015.5 - 0.0 - - - - - - -
30/03:00am 20.9 ESE 4 5 1015.6 - 0.0 - - - - - - -
30/02:30am 20.9 SE 3 4 1015.8 - 0.0 - - - - - - -
30/02:00am 21.0 SSE 3 4 1016.0 - 0.0 - - - - - - -
30/01:30am 21.4 E 3 3 1016.0 - 0.0 - - - - - - -
30/01:00am 21.5 ESE 3 4 1016.0 - 0.0 - - - - - - -
30/12:30am 21.6 ESE 5 6 1016.1 - 0.0 - - - - - - -
30/12:00am 21.8 ESE 3 4 1016.1 - 0.0 - - - - - - -
 
Date/Time
WST
Temp
°C
Wind Pressure Rain since
9am
mm
Weather Cloud Vis
km
Sea
Height
m
Swell
Dir  Spd
kts
Gust
kts
hPa Trend Height
m
Period
s
Dir
29/11:30pm 21.5 SE 4 5 1016.2 - 0.0 - - - - - - -
29/11:00pm 21.5 SSE 4 6 1016.2 - 0.0 - - - - - - -
29/10:30pm 22.0 CALM 0 0 1016.2 - 0.0 - - - - - - -
29/10:00pm 22.8 CALM 0 0 1016.2 - 0.0 - - - - - - -
29/09:30pm 23.5 CALM 0 0 1016.0 - 0.0 - - - - - - -
29/09:00pm 23.6 CALM 0 0 1015.9 - 0.0 - - - - - - -
29/08:30pm 24.3 CALM 0 0 1015.7 - 0.0 - - - - - - -
29/08:00pm 24.6 N 2 3 1015.5 - 0.0 - - - - - - -
29/07:30pm 24.8 CALM 0 1 1015.3 - 0.0 - - - - - - -
29/07:00pm 25.5 N 2 3 1015.0 - 0.0 - - - - - - -
29/06:30pm 26.1 N 3 5 1014.7 - 0.0 - - - - - - -
29/06:00pm 27.3 N 5 8 1014.4 - 0.0 - - - - - - -
29/05:30pm 28.7 N 6 11 1014.1 - 0.0 - - - - - - -
29/05:00pm 29.7 N 8 13 1013.8 - 0.0 - - - - - - -
29/04:30pm 30.3 N 9 13 1013.7 - 0.0 - - - - - - -
29/04:00pm 31.7 N 10 16 1013.5 - 0.0 - - - - - - -
29/03:30pm 31.8 N 10 14 1013.6 - 0.0 - - - - - - -
29/03:00pm 32.3 N 10 15 1013.5 - 0.0 - - - - - - -
29/02:30pm 33.3 N 11 15 1013.4 - 0.0 - - - - - - -
29/02:00pm 33.8 N 10 15 1013.4 - 0.0 - - - - - - -
29/01:30pm 34.2 E 5 10 1013.7 - 0.0 - - - - - - -
29/01:00pm 33.9 E 5 9 1014.1 - 0.0 - - - - - - -
29/12:30pm 33.7 E 7 13 1014.4 - 0.0 - - - - - - -
29/12:00pm 33.8 ENE 7 12 1014.9 - 0.0 - - - - - - -
29/11:30am 33.3 ENE 8 15 1015.3 - 0.0 - - - - - - -
29/11:00am 32.9 ENE 9 12 1015.6 - 0.0 - - - - - - -
29/10:30am 32.4 NE 11 15 1015.8 - 0.0 - - - - - - -
29/10:00am 31.1 ENE 12 16 1016.0 - 0.0 - - - - - - -
29/09:30am 30.1 ENE 8 12 1016.2 - 0.0 - - - - - - -
29/09:00am 28.5 E 6 9 1016.2 - 0.0 - - - - - - -
29/08:30am 26.5 ESE 6 8 1016.1 - 0.0 - - - - - - -
29/08:00am 25.5 ESE 7 9 1015.9 - 0.0 - - - - - - -
29/07:30am 22.8 ESE 5 6 1015.7 - 0.0 - - - - - - -
29/07:00am 19.4 ESE 5 5 1015.4 - 0.0 - - - - - - -
29/06:30am 19.5 ESE 4 4 1015.3 - 0.0 - - - - - - -
29/06:00am 20.1 SE 3 4 1015.1 - 0.0 - - - - - - -
29/05:30am 20.4 SE 3 4 1015.1 - 0.0 - - - - - - -
29/05:00am 20.9 ESE 5 5 1014.9 - 0.0 - - - - - - -
29/04:30am 21.6 ESE 5 7 1015.0 - 0.0 - - - - - - -
29/04:00am 21.0 ESE 6 9 1014.8 - 0.0 - - - - - - -
29/03:30am 20.6 SSE 4 5 1014.7 - 0.0 - - - - - - -
29/03:00am 21.0 SSW 4 4 1014.4 - 0.0 - - - - - - -
29/02:30am 21.4 SW 3 4 1014.7 - 0.0 - - - - - - -
29/02:00am 21.6 SSW 4 6 1014.9 - 0.0 - - - - - - -
29/01:30am 21.4 SSW 6 6 1015.1 - 0.0 - - - - - - -
29/01:00am 21.8 SE 4 4 1015.5 - 0.0 - - - - - - -
29/12:30am 22.1 E 2 3 1015.9 - 0.0 - - - - - - -
29/12:00am 22.0 ESE 4 5 1016.0 - 0.0 - - - - - - -
 
Date/Time
WST
Temp
°C
Wind Pressure Rain since
9am
mm
Weather Cloud Vis
km
Sea
Height
m
Swell
Dir  Spd
kts
Gust
kts
hPa Trend Height
m
Period
s
Dir
28/11:30pm 22.5 E 4 5 1015.9 - 0.0 - - - - - - -
28/11:00pm 23.1 CALM 0 0 1016.0 - 0.0 - - - - - - -
28/10:30pm 23.3 CALM 0 0 1016.1 - 0.0 - - - - - - -
28/10:00pm 24.1 CALM 0 0 1016.0 - 0.0 - - - - - - -
28/09:30pm 24.1 SSW 2 2 1016.3 - 0.0 - - - - - - -
28/09:00pm 24.0 SSW 3 3 1016.2 - 0.0 - - - - - - -
28/08:30pm 24.3 SW 3 3 1016.1 - 0.0 - - - - - - -
28/08:00pm 24.7 CALM 0 3 1016.0 - 0.0 - - - - - - -
28/07:30pm 25.9 CALM 0 2 1015.5 - 0.0 - - - - - - -
28/07:00pm 26.2 NNW 2 2 1015.4 - 0.0 - - - - - - -
28/06:30pm 26.6 NNW 3 4 1015.3 - 0.0 - - - - - - -
28/06:00pm 27.3 NNW 2 3 1014.9 - 0.0 - - - - - - -
28/05:30pm 28.4 NW 4 6 1014.4 - 0.0 - - - - - - -
28/05:00pm 29.3 NW 7 10 1014.3 - 0.0 - - - - - - -
28/04:30pm 30.7 NW 8 11 1014.2 - 0.0 - - - - - - -
28/04:00pm 32.1 NNW 7 10 1013.9 - 0.0 - - - - - - -
28/03:30pm 32.1 NNW 7 11 1013.8 - 0.0 - - - - - - -
28/03:00pm 32.9 NW 9 13 1013.9 - 0.0 - - - - - - -
28/02:30pm 32.9 NW 7 10 1014.1 - 0.0 - - - - - - -
28/02:00pm 33.8 WNW 10 13 1014.2 - 0.0 - - - - - - -
28/01:30pm 33.3 WSW 8 15 1014.5 - 0.0 - - - - - - -
28/01:00pm 33.7 S 4 7 1014.9 - 0.0 - - - - - - -
28/12:30pm 33.7 SE 5 9 1015.4 - 0.0 - - - - - - -
28/12:00pm 33.3 ENE 3 7 1015.9 - 0.0 - - - - - - -
28/11:30am 33.1 E 5 9 1016.5 - 0.0 - - - - - - -
28/11:00am 33.0 E 6 9 1016.9 - 0.0 - - - - - - -
28/10:30am 31.5 E 9 11 1017.1 - 0.0 - - - - - - -
28/10:00am 30.9 ESE 9 12 1017.4 - 0.0 - - - - - - -
28/09:30am 29.6 ESE 10 13 1017.5 - 0.0 - - - - - - -
28/09:00am 28.2 ESE 11 14 1017.4 - 0.0 - - - - - - -
28/08:30am 27.1 ESE 10 13 1017.3 - 0.0 - - - - - - -
28/08:00am 25.7 ESE 6 9 1017.2 - 0.0 - - - - - - -
28/07:30am 23.2 E 5 7 1016.9 - 0.0 - - - - - - -
28/07:00am 21.2 E 4 5 1016.7 - 0.0 - - - - - - -
28/06:30am 20.1 SE 3 4 1016.6 - 0.0 - - - - - - -
28/06:00am 21.2 ESE 4 5 1016.5 - 0.0 - - - - - - -
28/05:30am 21.8 ESE 4 4 1016.6 - 0.0 - - - - - - -
28/05:00am 21.6 E 4 5 1016.5 - 0.0 - - - - - - -
28/04:30am 22.5 E 6 7 1016.3 - 0.0 - - - - - - -
28/04:00am 22.2 ESE 6 7 1016.2 - 0.0 - - - - - - -
28/03:30am 21.5 E 4 5 1016.1 - 0.0 - - - - - - -
28/03:00am 21.7 ESE 4 5 1016.2 - 0.0 - - - - - - -
28/02:30am 22.0 ESE 5 6 1016.2 - 0.0 - - - - - - -
28/02:00am 22.2 ESE 5 7 1016.2 - 0.0 - - - - - - -
28/01:30am 22.0 ESE 5 6 1016.3 - 0.0 - - - - - - -
28/01:00am 22.0 SE 3 4 1016.3 - 0.0 - - - - - - -

Other Formats:

Comma delimited format used in spreadsheet applications
http://www.bom.gov.au/fwo/IDW60701/IDW60701.94306.axf

JavaScript Object Notation format (JSON) in row-major order
http://www.bom.gov.au/fwo/IDW60701/IDW60701.94306.json